Higashikagura-chō, Japan

1:10 PM JST on December 19, 2014 (GMT +0900)
Asahikawa AB | Change Station
CLOSE
Current Station
Airport
Location: Asahikawa AB,
Elevation: 384 ft
Nearby Weather Stations

Elev 384 ft 43.79 °N, 142.37 °E | Updated 8 minutes ago

Light Snow Showers
Light Showers Snow
25 °F
Feels Like 25 °F
N
1
Wind Variable Wind from Variable

Today
High -- | Low -- °F
--% Chance of Precip.
Yesterday
High -- | Low -- °F
Precip. -- in
6:59 AM 3:55 PM
Waning Crescent, 10% visible
Pressure 30.21 in
Visibility 6.2 miles
Clouds Few 1000 ft
Scattered Clouds 3000 ft
Mostly Cloudy 6000 ft
Dew Point 18 °F
Humidity 74%
Rainfall 0.00 in
Snow Depth Not available.
UV 1 out of 12
Pollen Not available.
Air Quality Not available.
Flu Activity Not available.
SPECI RJCA 190402Z VRB01KT 9999 -SHSN FEW010 SCT030 BKN060 M04/M08 Q1023 RMK 1ST010 4CU030 5SC060 A3021

More Conditions Fewer Conditions

Pressure 30.21 in
Visibility 6.2 miles
Clouds Few 1000 ft
Scattered Clouds 3000 ft
Mostly Cloudy 6000 ft
Dew Point 18 °F
Humidity 74%
Rainfall 0.00 in
Snow Depth Not available.
UV 1 out of 12
Pollen Not available.
Air Quality Not available.
Flu Activity Not available.
SPECI RJCA 190402Z VRB01KT 9999 -SHSN FEW010 SCT030 BKN060 M04/M08 Q1023 RMK 1ST010 4CU030 5SC060 A3021

More Conditions Fewer Conditions

10-Day Weather Forecast

Almanac

Astronomy

Dec. 19, 2014 Rise Set
Actual Time
Civil Twilight
Nautical Twilight
Astronomical Twilight
Moon
Length of Visible Light
Length of Day
Tomorrow will be .
, % of the Moon is Illuminated

Today's Extremes

Country Highs Country Lows

Community

WunderPhotos

Upload Photos

1,778,975 photos uploaded!

WunderBlogs® & News

Nearby

Air Quality

  Air Quality AQ Index Pollutant
Not available.

Snow Depth

Station Depth Elevation

Earthquake Activity

City Distance Mag. Time & Date
Minimum magnitude displayed is 2.5.

Coastal Water Temperatures

Place Temperature

Nearby Weather Stations